Liberty Grace — WADN — position and weather

sailwx.info

Track history (hours):
 
Tides and Currents Weather Stations Pressure Air Temp Water Temp Dewpoint Dewpoint Depression Visibility Wind Speed Wind Dir Waves Ship Positions

Liberty Grace

Owner: Liberty Shipping Group, LLC, LAKE SUCCESS, NY. More information available from US FCC via Universal Licensing System and Coast Guard Vessel Documentation Center.

Last reported at 2015-Jan-15 03:29 UTC. Time now 2015-Jan-25 10:18 UTC.
Position N 35°59' E 025°21'.
Warning: this ship's position is 10 days out of date.

Type: Cargo ship. MMSI: 338219000.

Date/timePositionNaut miles runAvg speedWind from/ knotsBaromVisibWave heightAir tempDewpointWater temp
2015-Jan-15 03:29N 35°59' E 025°21'1313.8
2015-Jan-15 02:33N 36°06' E 025°08'1413.9
2015-Jan-15 01:33N 36°14' E 024°53'2813.8
2015-Jan-14 23:33N 36°30' E 024°26'1313.3
2015-Jan-14 22:33N 36°38' E 024°13'1413.7
2015-Jan-14 21:33N 36°51' E 024°06'1413.8
2015-Jan-14 20:33N 37°04' E 023°60'1514.2
2015-Jan-14 19:30N 37°17' E 023°52'2013.8
2015-Jan-14 18:05N 37°36' E 023°44'713.6
2015-Jan-14 17:33N 37°42' E 023°40'1110.8
2015-Jan-14 16:33N 37°50' E 023°31'0 0.2
2015-Jan-14 15:32N 37°51' E 023°31'0 0.0
2015-Jan-14 14:32N 37°51' E 023°31'0 0.0
2015-Jan-14 13:32N 37°51' E 023°31'0 0.1
2015-Jan-14 12:32N 37°51' E 023°31'0 0.1
2015-Jan-14 11:32N 37°51' E 023°31'0 0.1
2015-Jan-14 10:32N 37°51' E 023°31'0 0.0
2015-Jan-14 09:32N 37°50' E 023°31'0 0.0
2015-Jan-14 08:32N 37°50' E 023°31'0 0.1
2015-Jan-14 07:32N 37°51' E 023°31'0 0.0
2015-Jan-14 06:32N 37°51' E 023°31'0 0.0
2015-Jan-14 05:32N 37°50' E 023°31'0 0.4
2015-Jan-14 04:33N 37°50' E 023°32'6 6.0
2015-Jan-14 03:33N 37°50' E 023°39'8 7.7
2015-Jan-14 02:33N 37°43' E 023°43'20910.2
2015-Jan-13 06:00N 36°12' E 019°48'26010.9 360 / 291026.510.8 4.513.0 2.920.0
2015-Jan-12 06:09N 36°23' E 014°26'813.1
2015-Jan-12 05:33N 36°25' E 014°16'1313.2
2015-Jan-12 04:33N 36°29' E 014°01'1313.1
2015-Jan-12 03:33N 36°33' E 013°45'19113.6
2015-Jan-11 13:29N 37°33' E 009°57'1314.1
2015-Jan-11 12:32N 37°28' E 009°41'1713.9
2015-Jan-11 11:21N 37°23' E 009°22'1214.4
2015-Jan-11 10:31N 37°19' E 009°08'4314.5
2015-Jan-11 07:32N 37°18' E 008°13'1414.1
2015-Jan-11 06:33N 37°19' E 007°56'1513.1
2015-Jan-11 05:24N 37°18' E 007°37'2513.2
2015-Jan-11 03:29N 37°20' E 007°05'7114.4
2015-Jan-10 22:33N 37°17' E 005°36'1614.8
2015-Jan-10 21:26N 37°16' E 005°16'1213.7
2015-Jan-10 20:33N 37°15' E 005°01'1414.3
2015-Jan-10 19:33N 37°13' E 004°43'1715.9
2015-Jan-10 18:30N 37°11' E 004°22'1514.0
2015-Jan-10 17:28N 37°10' E 004°04'2914.6
2015-Jan-10 15:29N 37°05' E 003°28'14415.2
2015-Jan-10 06:00N 36°42' E 000°30'3313.2 200 / 51033.110.8 0.514.510.720.0
2015-Jan-10 03:27N 36°37' W 000°11'24313.5
2015-Jan-09 09:33N 36°01' W 005°09'1312.7
2015-Jan-09 08:33N 35°58' W 005°24'26912.7
2015-Jan-08 11:19N 36°13' W 010°57'6512.3
2015-Jan-08 06:00N 36°18' W 012°18'32013.3 050 / 131034.210.8 1.015.612.122.0
2015-Jan-07 06:00N 36°54' W 018°54'19413.4 020 / 71032.010.8 0.515.0 8.122.0
2015-Jan-06 15:29N 37°20' W 022°55'1212.9
2015-Jan-06 14:33N 37°22' W 023°10'1313.4
2015-Jan-06 13:33N 37°23' W 023°27'1313.1
2015-Jan-06 12:33N 37°25' W 023°43'1313.2
2015-Jan-06 11:33N 37°27' W 023°60'1413.6
2015-Jan-06 10:33N 37°28' W 024°17'1313.4
2015-Jan-06 09:33N 37°30' W 024°34'1413.6
2015-Jan-06 08:33N 37°31' W 024°51'1313.5
2015-Jan-06 07:34N 37°33' W 025°08'1313.5
2015-Jan-06 06:34N 37°34' W 025°24'1313.2
2015-Jan-06 05:33N 37°35' W 025°41'1312.7
2015-Jan-06 04:34N 37°36' W 025°57'1313.1
2015-Jan-06 03:34N 37°36' W 026°14'1313.1
2015-Jan-06 02:33N 37°37' W 026°30'1313.5
2015-Jan-06 01:33N 37°38' W 026°47'1313.2
2015-Jan-06 00:33N 37°38' W 027°04'1313.0
2015-Jan-05 23:33N 37°39' W 027°20'1313.2
2015-Jan-05 22:34N 37°39' W 027°37'1313.0
2015-Jan-05 21:33N 37°40' W 027°53'1313.0
2015-Jan-05 20:33N 37°40' W 028°10'1313.0
2015-Jan-05 19:34N 37°40' W 028°26'1313.3
2015-Jan-05 18:33N 37°41' W 028°43'1313.1
2015-Jan-05 17:33N 37°42' W 028°60'1313.1
2015-Jan-05 16:33N 37°42' W 029°16'1312.8
2015-Jan-05 15:33N 37°43' W 029°32'1313.1
2015-Jan-05 14:33N 37°44' W 029°49'2810.9
2015-Jan-05 12:00N 37°42' W 030°24'   360 / 161033.010.8 1.013.0 4.325.0
Track history (hours):
 
Tides and Currents Weather Stations Pressure Air Temp Water Temp Dewpoint Dewpoint Depression Visibility Wind Speed Wind Dir Waves Ship Positions

Liberty Grace

Owner: Liberty Shipping Group, LLC, LAKE SUCCESS, NY. More information available from US FCC via Universal Licensing System and Coast Guard Vessel Documentation Center.

Last reported at 2015-Jan-15 03:29 UTC. Time now 2015-Jan-25 10:18 UTC.
Position N 35°59' E 025°21'.
Warning: this ship's position is 10 days out of date.

Type: Cargo ship. MMSI: 338219000.

Date/timePositionNaut miles runAvg speedWind from/ knotsBaromVisibWave heightAir tempDewpointWater temp
2015-Jan-15 03:29N 35°59' E 025°21'1313.8
2015-Jan-15 02:33N 36°06' E 025°08'1413.9
2015-Jan-15 01:33N 36°14' E 024°53'2813.8
2015-Jan-14 23:33N 36°30' E 024°26'1313.3
2015-Jan-14 22:33N 36°38' E 024°13'1413.7
2015-Jan-14 21:33N 36°51' E 024°06'1413.8
2015-Jan-14 20:33N 37°04' E 023°60'1514.2
2015-Jan-14 19:30N 37°17' E 023°52'2013.8
2015-Jan-14 18:05N 37°36' E 023°44'713.6
2015-Jan-14 17:33N 37°42' E 023°40'1110.8
2015-Jan-14 16:33N 37°50' E 023°31'0 0.2
2015-Jan-14 15:32N 37°51' E 023°31'0 0.0
2015-Jan-14 14:32N 37°51' E 023°31'0 0.0
2015-Jan-14 13:32N 37°51' E 023°31'0 0.1
2015-Jan-14 12:32N 37°51' E 023°31'0 0.1
2015-Jan-14 11:32N 37°51' E 023°31'0 0.1
2015-Jan-14 10:32N 37°51' E 023°31'0 0.0
2015-Jan-14 09:32N 37°50' E 023°31'0 0.0
2015-Jan-14 08:32N 37°50' E 023°31'0 0.1
2015-Jan-14 07:32N 37°51' E 023°31'0 0.0
2015-Jan-14 06:32N 37°51' E 023°31'0 0.0
2015-Jan-14 05:32N 37°50' E 023°31'0 0.4
2015-Jan-14 04:33N 37°50' E 023°32'6 6.0
2015-Jan-14 03:33N 37°50' E 023°39'8 7.7
2015-Jan-14 02:33N 37°43' E 023°43'20910.2
2015-Jan-13 06:00N 36°12' E 019°48'26010.9 360 / 291026.510.8 4.513.0 2.920.0
2015-Jan-12 06:09N 36°23' E 014°26'813.1
2015-Jan-12 05:33N 36°25' E 014°16'1313.2
2015-Jan-12 04:33N 36°29' E 014°01'1313.1
2015-Jan-12 03:33N 36°33' E 013°45'19113.6
2015-Jan-11 13:29N 37°33' E 009°57'1314.1
2015-Jan-11 12:32N 37°28' E 009°41'1713.9
2015-Jan-11 11:21N 37°23' E 009°22'1214.4
2015-Jan-11 10:31N 37°19' E 009°08'4314.5
2015-Jan-11 07:32N 37°18' E 008°13'1414.1
2015-Jan-11 06:33N 37°19' E 007°56'1513.1
2015-Jan-11 05:24N 37°18' E 007°37'2513.2
2015-Jan-11 03:29N 37°20' E 007°05'7114.4
2015-Jan-10 22:33N 37°17' E 005°36'1614.8
2015-Jan-10 21:26N 37°16' E 005°16'1213.7
2015-Jan-10 20:33N 37°15' E 005°01'1414.3
2015-Jan-10 19:33N 37°13' E 004°43'1715.9
2015-Jan-10 18:30N 37°11' E 004°22'1514.0
2015-Jan-10 17:28N 37°10' E 004°04'2914.6
2015-Jan-10 15:29N 37°05' E 003°28'14415.2
2015-Jan-10 06:00N 36°42' E 000°30'3313.2 200 / 51033.110.8 0.514.510.720.0
2015-Jan-10 03:27N 36°37' W 000°11'24313.5
2015-Jan-09 09:33N 36°01' W 005°09'1312.7
2015-Jan-09 08:33N 35°58' W 005°24'26912.7
2015-Jan-08 11:19N 36°13' W 010°57'6512.3
2015-Jan-08 06:00N 36°18' W 012°18'32013.3 050 / 131034.210.8 1.015.612.122.0
2015-Jan-07 06:00N 36°54' W 018°54'19413.4 020 / 71032.010.8 0.515.0 8.122.0
2015-Jan-06 15:29N 37°20' W 022°55'1212.9
2015-Jan-06 14:33N 37°22' W 023°10'1313.4
2015-Jan-06 13:33N 37°23' W 023°27'1313.1
2015-Jan-06 12:33N 37°25' W 023°43'1313.2
2015-Jan-06 11:33N 37°27' W 023°60'1413.6
2015-Jan-06 10:33N 37°28' W 024°17'1313.4
2015-Jan-06 09:33N 37°30' W 024°34'1413.6
2015-Jan-06 08:33N 37°31' W 024°51'1313.5
2015-Jan-06 07:34N 37°33' W 025°08'1313.5
2015-Jan-06 06:34N 37°34' W 025°24'1313.2
2015-Jan-06 05:33N 37°35' W 025°41'1312.7
2015-Jan-06 04:34N 37°36' W 025°57'1313.1
2015-Jan-06 03:34N 37°36' W 026°14'1313.1
2015-Jan-06 02:33N 37°37' W 026°30'1313.5
2015-Jan-06 01:33N 37°38' W 026°47'1313.2
2015-Jan-06 00:33N 37°38' W 027°04'1313.0
2015-Jan-05 23:33N 37°39' W 027°20'1313.2
2015-Jan-05 22:34N 37°39' W 027°37'1313.0
2015-Jan-05 21:33N 37°40' W 027°53'1313.0
2015-Jan-05 20:33N 37°40' W 028°10'1313.0
2015-Jan-05 19:34N 37°40' W 028°26'1313.3
2015-Jan-05 18:33N 37°41' W 028°43'1313.1
2015-Jan-05 17:33N 37°42' W 028°60'1313.1
2015-Jan-05 16:33N 37°42' W 029°16'1312.8
2015-Jan-05 15:33N 37°43' W 029°32'1313.1
2015-Jan-05 14:33N 37°44' W 029°49'2810.9
2015-Jan-05 12:00N 37°42' W 030°24'   360 / 161033.010.8 1.013.0 4.325.0

Dump ship's entire track history